sensor_id;sensor_type;location;lat;lon;timestamp;pressure;altitude;pressure_sealevel;temperature
67966;BMP280;54749;47.850;9.002;2023-07-20T00:00:07;95828.34;;;18.00
67966;BMP280;54749;47.850;9.002;2023-07-20T00:03:13;95835.34;;;18.06
67966;BMP280;54749;47.850;9.002;2023-07-20T00:05:46;95833.13;;;18.03
67966;BMP280;54749;47.850;9.002;2023-07-20T00:08:13;95832.47;;;18.01
67966;BMP280;54749;47.850;9.002;2023-07-20T00:10:41;95837.13;;;17.98
67966;BMP280;54749;47.850;9.002;2023-07-20T00:13:09;95841.13;;;17.92
67966;BMP280;54749;47.850;9.002;2023-07-20T00:15:36;95839.56;;;17.91
67966;BMP280;54749;47.850;9.002;2023-07-20T00:18:04;95844.97;;;17.96
67966;BMP280;54749;47.850;9.002;2023-07-20T00:20:32;95839.38;;;18.01
67966;BMP280;54749;47.850;9.002;2023-07-20T00:22:59;95838.22;;;18.11
67966;BMP280;54749;47.850;9.002;2023-07-20T00:25:27;95836.91;;;18.23
67966;BMP280;54749;47.850;9.002;2023-07-20T00:27:54;95835.94;;;18.31
67966;BMP280;54749;47.850;9.002;2023-07-20T00:30:21;95835.75;;;18.41
67966;BMP280;54749;47.850;9.002;2023-07-20T00:32:48;95840.69;;;18.50
67966;BMP280;54749;47.850;9.002;2023-07-20T00:35:16;95842.59;;;18.56
67966;BMP280;54749;47.850;9.002;2023-07-20T00:37:43;95839.34;;;18.61
67966;BMP280;54749;47.850;9.002;2023-07-20T00:40:11;95837.09;;;18.66
67966;BMP280;54749;47.850;9.002;2023-07-20T00:42:38;95829.59;;;18.73
67966;BMP280;54749;47.850;9.002;2023-07-20T00:45:06;95836.78;;;18.77
67966;BMP280;54749;47.850;9.002;2023-07-20T00:47:34;95845.72;;;18.81
67966;BMP280;54749;47.850;9.002;2023-07-20T00:50:02;95842.66;;;18.85
67966;BMP280;54749;47.850;9.002;2023-07-20T00:52:31;95838.00;;;18.89
67966;BMP280;54749;47.850;9.002;2023-07-20T00:54:59;95836.88;;;18.91
67966;BMP280;54749;47.850;9.002;2023-07-20T00:57:26;95834.94;;;18.93
67966;BMP280;54749;47.850;9.002;2023-07-20T00:59:54;95833.34;;;18.92
67966;BMP280;54749;47.850;9.002;2023-07-20T01:02:23;95838.44;;;18.92
67966;BMP280;54749;47.850;9.002;2023-07-20T01:04:50;95843.56;;;18.92
67966;BMP280;54749;47.850;9.002;2023-07-20T01:07:31;95834.94;;;18.93
67966;BMP280;54749;47.850;9.002;2023-07-20T01:10:02;95839.09;;;18.94
67966;BMP280;54749;47.850;9.002;2023-07-20T01:12:38;95842.47;;;18.94
67966;BMP280;54749;47.850;9.002;2023-07-20T01:15:08;95833.34;;;18.92
67966;BMP280;54749;47.850;9.002;2023-07-20T01:17:36;95841.19;;;18.91
67966;BMP280;54749;47.850;9.002;2023-07-20T01:20:03;95838.94;;;18.88
67966;BMP280;54749;47.850;9.002;2023-07-20T01:25:12;95832.75;;;18.82
67966;BMP280;54749;47.850;9.002;2023-07-20T01:28:28;95825.38;;;18.79
67966;BMP280;54749;47.850;9.002;2023-07-20T01:34:03;95826.53;;;18.77
67966;BMP280;54749;47.850;9.002;2023-07-20T01:36:36;95840.94;;;18.70
67966;BMP280;54749;47.850;9.002;2023-07-20T01:39:04;95836.47;;;18.64
67966;BMP280;54749;47.850;9.002;2023-07-20T01:41:33;95833.47;;;18.61
67966;BMP280;54749;47.850;9.002;2023-07-20T01:44:00;95833.63;;;18.59
67966;BMP280;54749;47.850;9.002;2023-07-20T01:46:28;95827.06;;;18.57
67966;BMP280;54749;47.850;9.002;2023-07-20T01:48:55;95825.31;;;18.50
67966;BMP280;54749;47.850;9.002;2023-07-20T01:51:23;95832.22;;;18.49
67966;BMP280;54749;47.850;9.002;2023-07-20T01:53:50;95829.19;;;18.46
67966;BMP280;54749;47.850;9.002;2023-07-20T01:56:17;95829.53;;;18.43
67966;BMP280;54749;47.850;9.002;2023-07-20T01:58:45;95831.78;;;18.38
67966;BMP280;54749;47.850;9.002;2023-07-20T02:01:12;95830.50;;;18.34
67966;BMP280;54749;47.850;9.002;2023-07-20T02:03:39;95832.41;;;18.32
67966;BMP280;54749;47.850;9.002;2023-07-20T02:06:06;95836.91;;;18.30
67966;BMP280;54749;47.850;9.002;2023-07-20T02:08:34;95838.81;;;18.28
67966;BMP280;54749;47.850;9.002;2023-07-20T02:11:01;95835.34;;;18.22
67966;BMP280;54749;47.850;9.002;2023-07-20T02:13:29;95845.88;;;18.19
67966;BMP280;54749;47.850;9.002;2023-07-20T02:15:57;95842.06;;;18.15
67966;BMP280;54749;47.850;9.002;2023-07-20T02:18:24;95832.50;;;18.09
67966;BMP280;54749;47.850;9.002;2023-07-20T02:20:53;95831.22;;;18.05
67966;BMP280;54749;47.850;9.002;2023-07-20T02:23:21;95838.56;;;18.00
67966;BMP280;54749;47.850;9.002;2023-07-20T02:25:48;95837.47;;;17.95
67966;BMP280;54749;47.850;9.002;2023-07-20T02:28:15;95844.00;;;17.89
67966;BMP280;54749;47.850;9.002;2023-07-20T02:30:42;95837.97;;;17.83
67966;BMP280;54749;47.850;9.002;2023-07-20T02:33:09;95832.78;;;17.75
67966;BMP280;54749;47.850;9.002;2023-07-20T02:35:37;95838.56;;;17.69
67966;BMP280;54749;47.850;9.002;2023-07-20T02:38:04;95850.38;;;17.62
67966;BMP280;54749;47.850;9.002;2023-07-20T02:40:32;95837.59;;;17.54
67966;BMP280;54749;47.850;9.002;2023-07-20T02:42:59;95839.81;;;17.50
67966;BMP280;54749;47.850;9.002;2023-07-20T02:45:27;95837.75;;;17.45
67966;BMP280;54749;47.850;9.002;2023-07-20T02:47:54;95855.00;;;17.43
67966;BMP280;54749;47.850;9.002;2023-07-20T02:50:22;95842.06;;;17.45
67966;BMP280;54749;47.850;9.002;2023-07-20T02:52:48;95845.59;;;17.44
67966;BMP280;54749;47.850;9.002;2023-07-20T02:55:17;95847.81;;;17.39
67966;BMP280;54749;47.850;9.002;2023-07-20T02:57:44;95855.63;;;17.37
67966;BMP280;54749;47.850;9.002;2023-07-20T03:00:12;95851.00;;;17.33
67966;BMP280;54749;47.850;9.002;2023-07-20T03:02:42;95855.63;;;17.30
67966;BMP280;54749;47.850;9.002;2023-07-20T03:05:09;95847.16;;;17.29
67966;BMP280;54749;47.850;9.002;2023-07-20T03:07:36;95852.59;;;17.26
67966;BMP280;54749;47.850;9.002;2023-07-20T03:10:04;95862.16;;;17.24
67966;BMP280;54749;47.850;9.002;2023-07-20T03:12:33;95859.75;;;17.23
67966;BMP280;54749;47.850;9.002;2023-07-20T03:15:02;95868.38;;;17.22
67966;BMP280;54749;47.850;9.002;2023-07-20T03:17:29;95866.94;;;17.19
67966;BMP280;54749;47.850;9.002;2023-07-20T03:19:57;95855.28;;;17.17
67966;BMP280;54749;47.850;9.002;2023-07-20T03:22:24;95856.38;;;17.15
67966;BMP280;54749;47.850;9.002;2023-07-20T03:24:51;95858.78;;;17.08
67966;BMP280;54749;47.850;9.002;2023-07-20T03:27:19;95850.59;;;16.97
67966;BMP280;54749;47.850;9.002;2023-07-20T03:29:46;95869.69;;;16.85
67966;BMP280;54749;47.850;9.002;2023-07-20T03:32:13;95865.16;;;16.72
67966;BMP280;54749;47.850;9.002;2023-07-20T03:34:41;95872.16;;;16.62
67966;BMP280;54749;47.850;9.002;2023-07-20T03:37:08;95865.72;;;16.58
67966;BMP280;54749;47.850;9.002;2023-07-20T03:39:35;95870.50;;;16.53
67966;BMP280;54749;47.850;9.002;2023-07-20T03:42:03;95867.63;;;16.48
67966;BMP280;54749;47.850;9.002;2023-07-20T03:44:31;95873.31;;;16.43
67966;BMP280;54749;47.850;9.002;2023-07-20T03:46:58;95866.13;;;16.38
67966;BMP280;54749;47.850;9.002;2023-07-20T03:49:25;95867.06;;;16.37
67966;BMP280;54749;47.850;9.002;2023-07-20T03:51:52;95869.47;;;16.39
67966;BMP280;54749;47.850;9.002;2023-07-20T03:54:20;95868.22;;;16.43
67966;BMP280;54749;47.850;9.002;2023-07-20T03:56:47;95868.22;;;16.43
67966;BMP280;54749;47.850;9.002;2023-07-20T03:59:14;95876.97;;;16.40
67966;BMP280;54749;47.850;9.002;2023-07-20T04:01:41;95872.34;;;16.36
67966;BMP280;54749;47.850;9.002;2023-07-20T04:04:08;95871.66;;;16.34
67966;BMP280;54749;47.850;9.002;2023-07-20T04:06:36;95877.88;;;16.31
67966;BMP280;54749;47.850;9.002;2023-07-20T04:09:03;95871.97;;;16.31
67966;BMP280;54749;47.850;9.002;2023-07-20T04:11:33;95876.09;;;16.32
67966;BMP280;54749;47.850;9.002;2023-07-20T04:14:01;95875.50;;;16.38
67966;BMP280;54749;47.850;9.002;2023-07-20T04:16:28;95875.19;;;16.41
67966;BMP280;54749;47.850;9.002;2023-07-20T04:18:56;95876.53;;;16.45
67966;BMP280;54749;47.850;9.002;2023-07-20T04:21:25;95871.75;;;16.49
67966;BMP280;54749;47.850;9.002;2023-07-20T04:23:52;95875.75;;;16.52
67966;BMP280;54749;47.850;9.002;2023-07-20T04:26:20;95883.28;;;16.53
67966;BMP280;54749;47.850;9.002;2023-07-20T04:28:48;95879.16;;;16.60
67966;BMP280;54749;47.850;9.002;2023-07-20T04:31:30;95891.00;;;16.69
67966;BMP280;54749;47.850;9.002;2023-07-20T04:34:00;95891.16;;;16.75
67966;BMP280;54749;47.850;9.002;2023-07-20T04:36:28;95892.28;;;16.73
67966;BMP280;54749;47.850;9.002;2023-07-20T04:38:56;95897.59;;;16.79
67966;BMP280;54749;47.850;9.002;2023-07-20T04:41:23;95900.78;;;16.89
67966;BMP280;54749;47.850;9.002;2023-07-20T04:43:54;95901.97;;;16.94
67966;BMP280;54749;47.850;9.002;2023-07-20T04:46:29;95906.47;;;17.00
67966;BMP280;54749;47.850;9.002;2023-07-20T04:48:58;95901.53;;;17.06
67966;BMP280;54749;47.850;9.002;2023-07-20T04:51:28;95896.63;;;17.13
67966;BMP280;54749;47.850;9.002;2023-07-20T04:53:58;95901.13;;;17.18
67966;BMP280;54749;47.850;9.002;2023-07-20T04:56:28;95897.28;;;17.22
67966;BMP280;54749;47.850;9.002;2023-07-20T04:58:57;95902.88;;;17.34
67966;BMP280;54749;47.850;9.002;2023-07-20T05:01:24;95906.91;;;17.44
67966;BMP280;54749;47.850;9.002;2023-07-20T05:03:52;95911.84;;;17.45
67966;BMP280;54749;47.850;9.002;2023-07-20T05:06:20;95914.09;;;17.48
67966;BMP280;54749;47.850;9.002;2023-07-20T05:08:48;95909.47;;;17.59
67966;BMP280;54749;47.850;9.002;2023-07-20T05:11:15;95911.09;;;17.68
67966;BMP280;54749;47.850;9.002;2023-07-20T05:13:43;95912.69;;;17.77
67966;BMP280;54749;47.850;9.002;2023-07-20T05:16:10;95906.81;;;17.84
67966;BMP280;54749;47.850;9.002;2023-07-20T05:18:38;95910.81;;;17.87
67966;BMP280;54749;47.850;9.002;2023-07-20T05:21:05;95903.47;;;17.91
67966;BMP280;54749;47.850;9.002;2023-07-20T05:23:33;95898.97;;;18.01
67966;BMP280;54749;47.850;9.002;2023-07-20T05:26:01;95903.28;;;18.16
67966;BMP280;54749;47.850;9.002;2023-07-20T05:28:28;95902.78;;;18.28
67966;BMP280;54749;47.850;9.002;2023-07-20T05:30:55;95899.91;;;18.47
67966;BMP280;54749;47.850;9.002;2023-07-20T05:33:22;95894.41;;;18.65
67966;BMP280;54749;47.850;9.002;2023-07-20T05:35:50;95889.28;;;18.73
67966;BMP280;54749;47.850;9.002;2023-07-20T05:38:17;95892.44;;;18.91
67966;BMP280;54749;47.850;9.002;2023-07-20T05:40:45;95890.38;;;19.16
67966;BMP280;54749;47.850;9.002;2023-07-20T05:43:12;95883.63;;;19.74
67966;BMP280;54749;47.850;9.002;2023-07-20T05:45:43;95885.66;;;19.86
67966;BMP280;54749;47.850;9.002;2023-07-20T05:48:12;95897.31;;;19.89
67966;BMP280;54749;47.850;9.002;2023-07-20T05:50:43;95890.91;;;20.07
67966;BMP280;54749;47.850;9.002;2023-07-20T05:53:11;95888.66;;;20.26
67966;BMP280;54749;47.850;9.002;2023-07-20T05:55:38;95888.97;;;20.45
67966;BMP280;54749;47.850;9.002;2023-07-20T05:58:07;95885.72;;;20.65
67966;BMP280;54749;47.850;9.002;2023-07-20T06:00:35;95889.97;;;20.86
67966;BMP280;54749;47.850;9.002;2023-07-20T06:03:02;95886.06;;;21.18
67966;BMP280;54749;47.850;9.002;2023-07-20T06:05:30;95881.38;;;22.17
67966;BMP280;54749;47.850;9.002;2023-07-20T06:07:58;95878.56;;;22.39
67966;BMP280;54749;47.850;9.002;2023-07-20T06:10:27;95872.63;;;22.39
67966;BMP280;54749;47.850;9.002;2023-07-20T06:12:54;95878.50;;;22.80
67966;BMP280;54749;47.850;9.002;2023-07-20T06:15:27;95881.41;;;23.10
67966;BMP280;54749;47.850;9.002;2023-07-20T06:17:55;95880.19;;;23.46
67966;BMP280;54749;47.850;9.002;2023-07-20T06:20:23;95881.44;;;23.62
67966;BMP280;54749;47.850;9.002;2023-07-20T06:22:51;95881.06;;;23.78
67966;BMP280;54749;47.850;9.002;2023-07-20T06:25:18;95866.25;;;24.62
67966;BMP280;54749;47.850;9.002;2023-07-20T06:27:46;95864.22;;;24.89
67966;BMP280;54749;47.850;9.002;2023-07-20T06:30:13;95854.94;;;25.98
67966;BMP280;54749;47.850;9.002;2023-07-20T06:32:41;95841.78;;;26.53
67966;BMP280;54749;47.850;9.002;2023-07-20T06:35:08;95837.63;;;27.40
67966;BMP280;54749;47.850;9.002;2023-07-20T06:37:36;95829.91;;;28.53
67966;BMP280;54749;47.850;9.002;2023-07-20T06:40:03;95843.94;;;27.90
67966;BMP280;54749;47.850;9.002;2023-07-20T06:42:35;95843.78;;;27.74
67966;BMP280;54749;47.850;9.002;2023-07-20T06:45:05;95846.56;;;27.26
67966;BMP280;54749;47.850;9.002;2023-07-20T06:47:33;95848.25;;;27.49
67966;BMP280;54749;47.850;9.002;2023-07-20T06:50:00;95849.44;;;27.01
67966;BMP280;54749;47.850;9.002;2023-07-20T06:52:29;95845.34;;;27.11
67966;BMP280;54749;47.850;9.002;2023-07-20T06:54:56;95840.16;;;27.75
67966;BMP280;54749;47.850;9.002;2023-07-20T06:57:26;95829.09;;;29.58
67966;BMP280;54749;47.850;9.002;2023-07-20T06:59:53;95828.47;;;29.67
67966;BMP280;54749;47.850;9.002;2023-07-20T07:02:21;95822.81;;;29.97
67966;BMP280;54749;47.850;9.002;2023-07-20T07:04:48;95828.00;;;29.97
67966;BMP280;54749;47.850;9.002;2023-07-20T07:07:16;95815.13;;;31.45
67966;BMP280;54749;47.850;9.002;2023-07-20T07:09:52;95813.44;;;33.13
67966;BMP280;54749;47.850;9.002;2023-07-20T07:12:20;95810.78;;;33.68
67966;BMP280;54749;47.850;9.002;2023-07-20T07:14:47;95813.16;;;33.79
67966;BMP280;54749;47.850;9.002;2023-07-20T07:17:15;95813.72;;;33.86
67966;BMP280;54749;47.850;9.002;2023-07-20T07:19:46;95810.66;;;34.43
67966;BMP280;54749;47.850;9.002;2023-07-20T07:22:15;95812.47;;;34.86
67966;BMP280;54749;47.850;9.002;2023-07-20T07:24:42;95815.38;;;34.55
67966;BMP280;54749;47.850;9.002;2023-07-20T07:27:10;95818.78;;;35.71
67966;BMP280;54749;47.850;9.002;2023-07-20T07:29:38;95821.19;;;33.44
67966;BMP280;54749;47.850;9.002;2023-07-20T07:32:06;95814.00;;;33.80
67966;BMP280;54749;47.850;9.002;2023-07-20T07:34:33;95808.28;;;34.27
67966;BMP280;54749;47.850;9.002;2023-07-20T07:37:02;95811.66;;;34.90
67966;BMP280;54749;47.850;9.002;2023-07-20T07:39:29;95815.22;;;35.38
67966;BMP280;54749;47.850;9.002;2023-07-20T07:42:01;95799.38;;;35.53
67966;BMP280;54749;47.850;9.002;2023-07-20T07:44:28;95797.34;;;35.87
67966;BMP280;54749;47.850;9.002;2023-07-20T07:46:56;95808.47;;;35.08
67966;BMP280;54749;47.850;9.002;2023-07-20T07:49:23;95809.06;;;34.42
67966;BMP280;54749;47.850;9.002;2023-07-20T07:51:50;95810.09;;;34.12
67966;BMP280;54749;47.850;9.002;2023-07-20T07:54:17;95799.06;;;34.10
67966;BMP280;54749;47.850;9.002;2023-07-20T07:56:45;95802.22;;;34.21
67966;BMP280;54749;47.850;9.002;2023-07-20T07:59:12;95810.84;;;33.18
67966;BMP280;54749;47.850;9.002;2023-07-20T08:01:39;95808.75;;;33.25
67966;BMP280;54749;47.850;9.002;2023-07-20T08:04:06;95801.69;;;34.87
67966;BMP280;54749;47.850;9.002;2023-07-20T08:06:34;95792.03;;;35.97
67966;BMP280;54749;47.850;9.002;2023-07-20T08:09:01;95798.28;;;36.06
67966;BMP280;54749;47.850;9.002;2023-07-20T08:11:29;95786.94;;;36.15
67966;BMP280;54749;47.850;9.002;2023-07-20T08:13:58;95786.97;;;37.21
67966;BMP280;54749;47.850;9.002;2023-07-20T08:16:27;95777.84;;;38.13
67966;BMP280;54749;47.850;9.002;2023-07-20T08:18:55;95780.75;;;38.61
67966;BMP280;54749;47.850;9.002;2023-07-20T08:21:23;95775.31;;;38.97
67966;BMP280;54749;47.850;9.002;2023-07-20T08:23:50;95773.41;;;39.55
67966;BMP280;54749;47.850;9.002;2023-07-20T08:26:17;95767.41;;;40.74
67966;BMP280;54749;47.850;9.002;2023-07-20T08:28:44;95754.06;;;41.80
67966;BMP280;54749;47.850;9.002;2023-07-20T08:31:12;95761.59;;;42.19
67966;BMP280;54749;47.850;9.002;2023-07-20T08:33:39;95752.81;;;42.35
67966;BMP280;54749;47.850;9.002;2023-07-20T08:36:07;95747.84;;;42.95
67966;BMP280;54749;47.850;9.002;2023-07-20T08:38:38;95753.88;;;43.12
67966;BMP280;54749;47.850;9.002;2023-07-20T08:41:05;95763.00;;;42.17
67966;BMP280;54749;47.850;9.002;2023-07-20T08:43:33;95757.47;;;42.71
67966;BMP280;54749;47.850;9.002;2023-07-20T08:46:00;95764.69;;;41.25
67966;BMP280;54749;47.850;9.002;2023-07-20T08:48:30;95776.59;;;39.78
67966;BMP280;54749;47.850;9.002;2023-07-20T08:50:58;95768.16;;;40.11
67966;BMP280;54749;47.850;9.002;2023-07-20T08:53:27;95765.28;;;40.85
67966;BMP280;54749;47.850;9.002;2023-07-20T08:55:55;95773.97;;;40.77
67966;BMP280;54749;47.850;9.002;2023-07-20T08:58:23;95772.78;;;37.58
67966;BMP280;54749;47.850;9.002;2023-07-20T09:00:51;95778.47;;;36.18
67966;BMP280;54749;47.850;9.002;2023-07-20T09:03:18;95783.19;;;35.17
67966;BMP280;54749;47.850;9.002;2023-07-20T09:05:46;95795.41;;;34.11
67966;BMP280;54749;47.850;9.002;2023-07-20T09:08:13;95785.78;;;33.37
67966;BMP280;54749;47.850;9.002;2023-07-20T09:10:41;95783.16;;;33.37
67966;BMP280;54749;47.850;9.002;2023-07-20T09:13:08;95786.22;;;33.89
67966;BMP280;54749;47.850;9.002;2023-07-20T09:15:36;95772.56;;;35.46
67966;BMP280;54749;47.850;9.002;2023-07-20T09:18:03;95759.28;;;36.45
67966;BMP280;54749;47.850;9.002;2023-07-20T09:20:35;95754.31;;;37.58
67966;BMP280;54749;47.850;9.002;2023-07-20T09:23:05;95748.16;;;38.21
67966;BMP280;54749;47.850;9.002;2023-07-20T09:25:36;95746.34;;;38.66
67966;BMP280;54749;47.850;9.002;2023-07-20T09:28:03;95744.13;;;38.05
67966;BMP280;54749;47.850;9.002;2023-07-20T09:30:32;95752.97;;;37.42
67966;BMP280;54749;47.850;9.002;2023-07-20T09:32:59;95750.91;;;37.75
67966;BMP280;54749;47.850;9.002;2023-07-20T09:35:27;95755.41;;;37.93
67966;BMP280;54749;47.850;9.002;2023-07-20T09:38:08;95747.56;;;36.61
67966;BMP280;54749;47.850;9.002;2023-07-20T09:40:39;95747.22;;;36.39
67966;BMP280;54749;47.850;9.002;2023-07-20T09:43:10;95752.97;;;35.24
67966;BMP280;54749;47.850;9.002;2023-07-20T09:45:42;95745.47;;;34.64
67966;BMP280;54749;47.850;9.002;2023-07-20T09:48:12;95733.34;;;35.96
67966;BMP280;54749;47.850;9.002;2023-07-20T09:50:49;95726.47;;;36.61
67966;BMP280;54749;47.850;9.002;2023-07-20T09:53:19;95726.69;;;37.33
67966;BMP280;54749;47.850;9.002;2023-07-20T09:55:47;95715.53;;;38.57
67966;BMP280;54749;47.850;9.002;2023-07-20T09:58:15;95717.75;;;38.37
67966;BMP280;54749;47.850;9.002;2023-07-20T10:00:44;95700.31;;;39.67
67966;BMP280;54749;47.850;9.002;2023-07-20T10:03:20;95705.09;;;40.34
67966;BMP280;54749;47.850;9.002;2023-07-20T10:05:52;95696.44;;;40.80
67966;BMP280;54749;47.850;9.002;2023-07-20T10:08:20;95700.03;;;40.03
67966;BMP280;54749;47.850;9.002;2023-07-20T10:10:52;95706.31;;;39.12
67966;BMP280;54749;47.850;9.002;2023-07-20T10:13:25;95692.41;;;40.10
67966;BMP280;54749;47.850;9.002;2023-07-20T10:15:54;95697.66;;;40.74
67966;BMP280;54749;47.850;9.002;2023-07-20T10:18:29;95690.06;;;40.51
67966;BMP280;54749;47.850;9.002;2023-07-20T10:20:59;95691.69;;;39.96
67966;BMP280;54749;47.850;9.002;2023-07-20T10:23:30;95681.38;;;39.73
67966;BMP280;54749;47.850;9.002;2023-07-20T10:25:58;95680.50;;;39.30
67966;BMP280;54749;47.850;9.002;2023-07-20T10:28:27;95676.41;;;38.98
67966;BMP280;54749;47.850;9.002;2023-07-20T10:30:55;95676.81;;;38.65
67966;BMP280;54749;47.850;9.002;2023-07-20T10:33:22;95665.72;;;39.29
67966;BMP280;54749;47.850;9.002;2023-07-20T10:35:55;95683.91;;;38.52
67966;BMP280;54749;47.850;9.002;2023-07-20T10:38:41;95671.03;;;38.76
67966;BMP280;54749;47.850;9.002;2023-07-20T10:41:20;95677.81;;;39.09
67966;BMP280;54749;47.850;9.002;2023-07-20T10:43:48;95663.06;;;39.29
67966;BMP280;54749;47.850;9.002;2023-07-20T10:46:33;95662.53;;;39.75
67966;BMP280;54749;47.850;9.002;2023-07-20T10:49:03;95656.94;;;39.42
67966;BMP280;54749;47.850;9.002;2023-07-20T10:51:42;95656.56;;;40.04
67966;BMP280;54749;47.850;9.002;2023-07-20T10:56:44;95649.97;;;40.23
67966;BMP280;54749;47.850;9.002;2023-07-20T10:59:18;95647.41;;;39.88
67966;BMP280;54749;47.850;9.002;2023-07-20T11:01:56;95646.97;;;40.16
67966;BMP280;54749;47.850;9.002;2023-07-20T11:04:39;95641.44;;;40.26
67966;BMP280;54749;47.850;9.002;2023-07-20T11:07:07;95647.03;;;40.24
67966;BMP280;54749;47.850;9.002;2023-07-20T11:09:38;95636.16;;;39.48
67966;BMP280;54749;47.850;9.002;2023-07-20T11:14:56;95659.16;;;35.90
67966;BMP280;54749;47.850;9.002;2023-07-20T11:17:31;95653.00;;;35.34
67966;BMP280;54749;47.850;9.002;2023-07-20T11:20:00;95657.50;;;34.71
67966;BMP280;54749;47.850;9.002;2023-07-20T11:22:33;95649.63;;;34.67
67966;BMP280;54749;47.850;9.002;2023-07-20T11:25:00;95641.53;;;34.58
67966;BMP280;54749;47.850;9.002;2023-07-20T11:27:27;95635.94;;;34.69
67966;BMP280;54749;47.850;9.002;2023-07-20T11:29:56;95646.06;;;34.09
67966;BMP280;54749;47.850;9.002;2023-07-20T11:32:24;95641.09;;;33.54
67966;BMP280;54749;47.850;9.002;2023-07-20T11:34:51;95643.44;;;32.57
67966;BMP280;54749;47.850;9.002;2023-07-20T11:37:19;95641.09;;;32.65
67966;BMP280;54749;47.850;9.002;2023-07-20T11:39:46;95637.22;;;32.77
67966;BMP280;54749;47.850;9.002;2023-07-20T11:42:14;95639.66;;;32.34
67966;BMP280;54749;47.850;9.002;2023-07-20T11:44:44;95648.41;;;32.13
67966;BMP280;54749;47.850;9.002;2023-07-20T11:47:12;95649.34;;;31.98
67966;BMP280;54749;47.850;9.002;2023-07-20T11:49:41;95648.88;;;31.18
67966;BMP280;54749;47.850;9.002;2023-07-20T11:52:14;95643.22;;;31.00
67966;BMP280;54749;47.850;9.002;2023-07-20T11:54:43;95644.69;;;30.71
67966;BMP280;54749;47.850;9.002;2023-07-20T11:57:16;95635.47;;;30.63
67966;BMP280;54749;47.850;9.002;2023-07-20T11:59:57;95640.56;;;30.54
67966;BMP280;54749;47.850;9.002;2023-07-20T12:02:27;95638.00;;;29.53
67966;BMP280;54749;47.850;9.002;2023-07-20T12:04:54;95624.22;;;29.09
67966;BMP280;54749;47.850;9.002;2023-07-20T12:07:22;95631.44;;;27.92
67966;BMP280;54749;47.850;9.002;2023-07-20T12:10:08;95632.41;;;27.79
67966;BMP280;54749;47.850;9.002;2023-07-20T12:12:40;95625.31;;;27.64
67966;BMP280;54749;47.850;9.002;2023-07-20T12:15:20;95625.72;;;26.99
67966;BMP280;54749;47.850;9.002;2023-07-20T12:17:52;95620.88;;;27.31
67966;BMP280;54749;47.850;9.002;2023-07-20T12:20:35;95620.25;;;27.91
67966;BMP280;54749;47.850;9.002;2023-07-20T12:23:11;95614.66;;;28.32
67966;BMP280;54749;47.850;9.002;2023-07-20T12:25:41;95609.84;;;28.90
67966;BMP280;54749;47.850;9.002;2023-07-20T12:28:12;95607.03;;;29.08
67966;BMP280;54749;47.850;9.002;2023-07-20T12:30:42;95605.88;;;29.63
67966;BMP280;54749;47.850;9.002;2023-07-20T12:33:09;95599.69;;;30.01
67966;BMP280;54749;47.850;9.002;2023-07-20T12:35:36;95586.38;;;30.40
67966;BMP280;54749;47.850;9.002;2023-07-20T12:38:04;95585.38;;;30.66
67966;BMP280;54749;47.850;9.002;2023-07-20T12:40:31;95588.25;;;30.44
67966;BMP280;54749;47.850;9.002;2023-07-20T12:42:58;95586.25;;;30.30
67966;BMP280;54749;47.850;9.002;2023-07-20T12:45:25;95589.91;;;29.76
67966;BMP280;54749;47.850;9.002;2023-07-20T12:47:53;95585.59;;;29.17
67966;BMP280;54749;47.850;9.002;2023-07-20T12:50:20;95585.09;;;29.20
67966;BMP280;54749;47.850;9.002;2023-07-20T12:52:47;95582.09;;;29.12
67966;BMP280;54749;47.850;9.002;2023-07-20T12:55:14;95583.44;;;29.14
67966;BMP280;54749;47.850;9.002;2023-07-20T12:57:43;95581.09;;;29.45
67966;BMP280;54749;47.850;9.002;2023-07-20T13:00:10;95584.16;;;29.74
67966;BMP280;54749;47.850;9.002;2023-07-20T13:02:38;95572.94;;;29.57
67966;BMP280;54749;47.850;9.002;2023-07-20T13:05:06;95561.28;;;29.60
67966;BMP280;54749;47.850;9.002;2023-07-20T13:07:34;95568.56;;;29.42
67966;BMP280;54749;47.850;9.002;2023-07-20T13:10:05;95563.97;;;29.17
67966;BMP280;54749;47.850;9.002;2023-07-20T13:12:34;95556.25;;;29.37
67966;BMP280;54749;47.850;9.002;2023-07-20T13:15:02;95548.50;;;29.42
67966;BMP280;54749;47.850;9.002;2023-07-20T13:17:37;95550.09;;;29.43
67966;BMP280;54749;47.850;9.002;2023-07-20T13:20:07;95549.84;;;29.61
67966;BMP280;54749;47.850;9.002;2023-07-20T13:22:37;95538.97;;;29.32
67966;BMP280;54749;47.850;9.002;2023-07-20T13:25:05;95542.72;;;29.24
67966;BMP280;54749;47.850;9.002;2023-07-20T13:27:33;95545.09;;;29.10
67966;BMP280;54749;47.850;9.002;2023-07-20T13:30:00;95530.69;;;29.35
67966;BMP280;54749;47.850;9.002;2023-07-20T13:32:29;95537.75;;;29.23
67966;BMP280;54749;47.850;9.002;2023-07-20T13:35:00;95540.28;;;29.02
67966;BMP280;54749;47.850;9.002;2023-07-20T13:37:28;95539.34;;;29.08
67966;BMP280;54749;47.850;9.002;2023-07-20T13:39:55;95524.97;;;28.89
67966;BMP280;54749;47.850;9.002;2023-07-20T13:42:23;95539.63;;;28.79
67966;BMP280;54749;47.850;9.002;2023-07-20T13:44:51;95531.94;;;29.00
67966;BMP280;54749;47.850;9.002;2023-07-20T13:47:18;95521.91;;;29.24
67966;BMP280;54749;47.850;9.002;2023-07-20T13:49:48;95520.09;;;29.09
67966;BMP280;54749;47.850;9.002;2023-07-20T13:52:29;95517.06;;;29.00
67966;BMP280;54749;47.850;9.002;2023-07-20T13:54:59;95518.59;;;29.13
67966;BMP280;54749;47.850;9.002;2023-07-20T13:57:27;95517.47;;;29.25
67966;BMP280;54749;47.850;9.002;2023-07-20T13:59:54;95515.97;;;29.45
67966;BMP280;54749;47.850;9.002;2023-07-20T14:02:21;95510.94;;;29.38
67966;BMP280;54749;47.850;9.002;2023-07-20T14:04:51;95508.25;;;29.18
67966;BMP280;54749;47.850;9.002;2023-07-20T14:07:38;95509.59;;;29.20
67966;BMP280;54749;47.850;9.002;2023-07-20T14:10:07;95499.91;;;29.32
67966;BMP280;54749;47.850;9.002;2023-07-20T14:12:37;95505.66;;;29.18
67966;BMP280;54749;47.850;9.002;2023-07-20T14:15:05;95504.53;;;28.82
67966;BMP280;54749;47.850;9.002;2023-07-20T14:17:32;95506.63;;;28.68
67966;BMP280;54749;47.850;9.002;2023-07-20T14:19:59;95505.56;;;28.81
67966;BMP280;54749;47.850;9.002;2023-07-20T14:22:26;95504.00;;;28.96
67966;BMP280;54749;47.850;9.002;2023-07-20T14:24:53;95495.84;;;29.24
67966;BMP280;54749;47.850;9.002;2023-07-20T14:27:21;95499.25;;;29.25
67966;BMP280;54749;47.850;9.002;2023-07-20T14:29:48;95504.31;;;29.31